Time,TemperatureF,DewpointF,PressureIn,WindDirection,WindDirectionDegrees,WindSpeedMPH,WindSpeedGustMPH,Humidity,HourlyPrecipIn,Conditions,Clouds,dailyrainin,SoftwareType,DateUTC
2013-03-06 00:03:00,24.2,20.0,29.56,ESE,121,0.0,0.0,83,0.00,,,0.00,weatherlink.com 1.10,2013-03-06 06:03:00,
2013-03-06 00:18:00,24.2,20.0,29.57,ESE,112,0.0,0.0,83,0.00,,,0.00,weatherlink.com 1.10,2013-03-06 06:18:00,
2013-03-06 00:33:00,24.2,20.0,29.57,SSE,155,0.0,0.0,83,0.00,,,0.00,weatherlink.com 1.10,2013-03-06 06:33:00,
2013-03-06 00:48:00,24.1,20.0,29.57,ESE,108,0.0,0.0,84,0.00,,,0.00,weatherlink.com 1.10,2013-03-06 06:48:00,
2013-03-06 01:03:00,24.1,20.0,29.58,ESE,103,0.0,0.0,84,0.00,,,0.00,weatherlink.com 1.10,2013-03-06 07:03:00,
2013-03-06 01:18:00,24.2,20.0,29.58,ENE,67,0.0,0.0,84,0.00,,,0.00,weatherlink.com 1.10,2013-03-06 07:18:00,
2013-03-06 01:33:00,24.3,20.0,29.59,ENE,62,0.0,0.0,85,0.00,,,0.00,weatherlink.com 1.10,2013-03-06 07:33:00,
2013-03-06 01:48:00,24.5,21.0,29.60,East,79,0.0,0.0,85,0.00,,,0.00,weatherlink.com 1.10,2013-03-06 07:48:00,
2013-03-06 02:03:00,24.7,21.0,29.60,East,96,0.0,0.0,85,0.00,,,0.00,weatherlink.com 1.10,2013-03-06 08:03:00,
2013-03-06 02:18:00,24.8,21.0,29.60,East,79,0.0,0.0,85,0.00,,,0.00,weatherlink.com 1.10,2013-03-06 08:18:00,
2013-03-06 02:33:00,24.8,21.0,29.60,ENE,69,0.0,0.0,86,0.00,,,0.00,weatherlink.com 1.10,2013-03-06 08:33:00,
2013-03-06 02:48:00,25.0,21.0,29.60,ENE,72,0.0,0.0,84,0.00,,,0.00,weatherlink.com 1.10,2013-03-06 08:48:00,
2013-03-06 03:03:00,24.9,20.0,29.60,SE,125,0.0,0.0,82,0.00,,,0.00,weatherlink.com 1.10,2013-03-06 09:03:00,
2013-03-06 03:18:00,24.6,20.0,29.60,East,91,0.0,0.0,82,0.00,,,0.00,weatherlink.com 1.10,2013-03-06 09:18:00,
2013-03-06 03:33:00,24.2,19.0,29.60,East,95,0.0,0.0,82,0.00,,,0.00,weatherlink.com 1.10,2013-03-06 09:33:00,
2013-03-06 03:48:00,24.1,20.0,29.61,ENE,71,0.0,0.0,83,0.00,,,0.00,weatherlink.com 1.10,2013-03-06 09:48:00,
2013-03-06 04:03:00,24.1,20.0,29.61,ESE,107,0.0,0.0,83,0.00,,,0.00,weatherlink.com 1.10,2013-03-06 10:03:00,
2013-03-06 04:18:00,24.0,20.0,29.61,ENE,72,0.0,0.0,83,0.00,,,0.00,weatherlink.com 1.10,2013-03-06 10:18:00,
2013-03-06 04:33:00,23.9,20.0,29.62,ESE,112,0.0,0.0,83,0.00,,,0.00,weatherlink.com 1.10,2013-03-06 10:33:00,
2013-03-06 04:48:00,23.6,19.0,29.62,ESE,102,0.0,0.0,82,0.00,,,0.00,weatherlink.com 1.10,2013-03-06 10:48:00,
2013-03-06 05:03:00,23.3,19.0,29.62,East,94,0.0,0.0,82,0.00,,,0.00,weatherlink.com 1.10,2013-03-06 11:03:00,
2013-03-06 05:18:00,23.1,18.0,29.63,ESE,121,0.0,0.0,82,0.00,,,0.00,weatherlink.com 1.10,2013-03-06 11:18:00,
2013-03-06 05:33:00,23.2,18.0,29.64,South,185,0.0,0.0,81,0.00,,,0.00,weatherlink.com 1.10,2013-03-06 11:33:00,
2013-03-06 05:49:00,23.2,18.0,29.64,East,84,0.0,0.0,81,0.00,,,0.00,weatherlink.com 1.10,2013-03-06 11:49:00,
2013-03-06 06:04:00,23.2,18.0,29.65,ENE,72,0.0,0.0,81,0.00,,,0.00,weatherlink.com 1.10,2013-03-06 12:04:00,
2013-03-06 06:19:00,23.0,19.0,29.65,East,95,0.0,0.0,83,0.00,,,0.00,weatherlink.com 1.10,2013-03-06 12:19:00,
2013-03-06 06:34:00,22.9,19.0,29.65,ENE,78,0.0,0.0,83,0.00,,,0.00,weatherlink.com 1.10,2013-03-06 12:34:00,
2013-03-06 06:49:00,22.6,18.0,29.66,ENE,61,0.0,0.0,83,0.00,,,0.00,weatherlink.com 1.10,2013-03-06 12:49:00,
2013-03-06 07:04:00,22.4,18.0,29.66,NE,54,0.0,0.0,83,0.00,,,0.00,weatherlink.com 1.10,2013-03-06 13:04:00,
2013-03-06 07:19:00,22.3,18.0,29.66,ENE,71,0.0,0.0,84,0.00,,,0.00,weatherlink.com 1.10,2013-03-06 13:19:00,
2013-03-06 07:49:00,22.4,18.0,29.67,ESE,102,0.0,0.0,82,0.00,,,0.00,weatherlink.com 1.10,2013-03-06 13:49:00,
2013-03-06 08:04:00,22.3,17.0,29.68,East,101,0.0,0.0,81,0.00,,,0.00,weatherlink.com 1.10,2013-03-06 14:04:00,
2013-03-06 08:19:00,22.7,18.0,29.68,East,82,0.0,0.0,81,0.00,,,0.00,weatherlink.com 1.10,2013-03-06 14:19:00,
2013-03-06 08:34:00,23.3,17.0,29.68,East,97,0.0,0.0,78,0.00,,,0.00,weatherlink.com 1.10,2013-03-06 14:34:00,
2013-03-06 08:49:00,23.4,18.0,29.68,ESE,102,0.0,0.0,78,0.00,,,0.00,weatherlink.com 1.10,2013-03-06 14:49:00,
2013-03-06 09:04:00,23.4,17.0,29.68,SE,135,0.0,0.0,77,0.00,,,0.00,weatherlink.com 1.10,2013-03-06 15:04:00,
2013-03-06 09:19:00,23.5,17.0,29.68,SE,124,0.0,0.0,76,0.00,,,0.00,weatherlink.com 1.10,2013-03-06 15:19:00,
2013-03-06 09:34:00,23.6,17.0,29.68,East,98,0.0,0.0,76,0.00,,,0.00,weatherlink.com 1.10,2013-03-06 15:34:00,
2013-03-06 09:49:00,23.9,17.0,29.68,SE,132,0.0,0.0,75,0.00,,,0.00,weatherlink.com 1.10,2013-03-06 15:49:00,
2013-03-06 10:04:00,24.2,17.0,29.68,ESE,116,7.0,8.0,75,0.00,,,0.00,weatherlink.com 1.10,2013-03-06 16:04:00,
2013-03-06 10:19:00,24.1,17.0,29.68,ENE,70,3.0,7.0,75,0.00,,,0.00,weatherlink.com 1.10,2013-03-06 16:19:00,
2013-03-06 10:49:00,24.8,18.0,29.67,ENE,64,2.0,7.0,74,0.00,,,0.00,weatherlink.com 1.10,2013-03-06 16:49:00,
2013-03-06 11:04:00,25.2,17.0,29.67,SE,131,2.0,7.0,72,0.00,,,0.00,weatherlink.com 1.10,2013-03-06 17:04:00,
2013-03-06 11:19:00,25.2,18.0,29.67,East,101,1.0,6.0,73,0.00,,,0.00,weatherlink.com 1.10,2013-03-06 17:19:00,
2013-03-06 11:34:00,25.7,18.0,29.67,ENE,78,4.0,9.0,72,0.00,,,0.00,weatherlink.com 1.10,2013-03-06 17:34:00,
2013-03-06 11:49:00,26.2,18.0,29.67,ENE,76,0.0,7.0,71,0.00,,,0.00,weatherlink.com 1.10,2013-03-06 17:49:00,
2013-03-06 12:04:00,26.5,18.0,29.66,NE,53,2.0,8.0,71,0.00,,,0.00,weatherlink.com 1.10,2013-03-06 18:04:00,
2013-03-06 12:19:00,27.1,19.0,29.66,East,82,7.0,7.0,70,0.00,,,0.00,weatherlink.com 1.10,2013-03-06 18:19:00,
2013-03-06 12:34:00,27.6,19.0,29.66,SE,132,2.0,4.0,69,0.00,,,0.00,weatherlink.com 1.10,2013-03-06 18:34:00,
2013-03-06 12:49:00,28.4,18.0,29.65,ENE,77,2.0,3.0,66,0.00,,,0.00,weatherlink.com 1.10,2013-03-06 18:49:00,
2013-03-06 13:04:00,27.8,18.0,29.65,North,8,0.0,6.0,68,0.00,,,0.00,weatherlink.com 1.10,2013-03-06 19:04:00,
2013-03-06 13:19:00,28.0,19.0,29.64,ENE,77,2.0,5.0,69,0.00,,,0.00,weatherlink.com 1.10,2013-03-06 19:19:00,
2013-03-06 13:34:00,27.9,19.0,29.64,NE,35,3.0,6.0,69,0.00,,,0.00,weatherlink.com 1.10,2013-03-06 19:34:00,
2013-03-06 13:49:00,28.3,19.0,29.63,ENE,72,4.0,7.0,69,0.00,,,0.00,weatherlink.com 1.10,2013-03-06 19:49:00,
2013-03-06 14:04:00,29.3,19.0,29.62,ENE,65,3.0,5.0,66,0.00,,,0.00,weatherlink.com 1.10,2013-03-06 20:04:00,
2013-03-06 14:19:00,29.2,19.0,29.62,East,88,1.0,6.0,66,0.00,,,0.00,weatherlink.com 1.10,2013-03-06 20:19:00,
2013-03-06 14:34:00,29.2,19.0,29.62,SE,144,1.0,5.0,66,0.00,,,0.00,weatherlink.com 1.10,2013-03-06 20:34:00,
2013-03-06 14:49:00,29.7,20.0,29.62,East,88,0.0,6.0,66,0.00,,,0.00,weatherlink.com 1.10,2013-03-06 20:49:00,
2013-03-06 15:04:00,29.1,19.0,29.61,SSE,167,2.0,5.0,66,0.00,,,0.00,weatherlink.com 1.10,2013-03-06 21:04:00,
2013-03-06 15:19:00,29.0,19.0,29.61,ENE,78,0.0,4.0,67,0.00,,,0.00,weatherlink.com 1.10,2013-03-06 21:19:00,
2013-03-06 15:34:00,28.6,19.0,29.61,ENE,72,2.0,6.0,67,0.00,,,0.00,weatherlink.com 1.10,2013-03-06 21:34:00,
2013-03-06 15:49:00,29.2,19.0,29.61,SE,127,2.0,4.0,67,0.00,,,0.00,weatherlink.com 1.10,2013-03-06 21:49:00,
2013-03-06 16:04:00,29.8,19.0,29.61,ENE,58,3.0,5.0,65,0.00,,,0.00,weatherlink.com 1.10,2013-03-06 22:04:00,
2013-03-06 16:19:00,30.0,19.0,29.61,NNE,32,2.0,5.0,64,0.01,,,0.01,weatherlink.com 1.10,2013-03-06 22:19:00,
2013-03-06 16:34:00,29.7,19.0,29.61,ENE,61,3.0,4.0,65,0.01,,,0.01,weatherlink.com 1.10,2013-03-06 22:34:00,
2013-03-06 16:49:00,29.3,19.0,29.60,East,101,1.0,4.0,66,0.01,,,0.01,weatherlink.com 1.10,2013-03-06 22:49:00,
2013-03-06 17:04:00,29.2,19.0,29.61,ENE,70,2.0,4.0,67,0.01,,,0.01,weatherlink.com 1.10,2013-03-06 23:04:00,
2013-03-06 17:20:00,28.4,19.0,29.61,ENE,57,2.0,6.0,68,0.00,,,0.01,weatherlink.com 1.10,2013-03-06 23:20:00,
2013-03-06 17:35:00,28.0,19.0,29.60,NE,53,2.0,4.0,69,0.00,,,0.01,weatherlink.com 1.10,2013-03-06 23:35:00,
2013-03-06 17:50:00,27.5,19.0,29.60,East,79,1.0,5.0,71,0.00,,,0.01,weatherlink.com 1.10,2013-03-06 23:50:00,
2013-03-06 18:05:00,27.2,19.0,29.60,ENE,70,2.0,4.0,71,0.00,,,0.01,weatherlink.com 1.10,2013-03-07 00:05:00,
2013-03-06 18:20:00,26.7,19.0,29.61,ENE,57,4.0,5.0,72,0.00,,,0.01,weatherlink.com 1.10,2013-03-07 00:20:00,
2013-03-06 18:35:00,26.0,18.0,29.61,ENE,58,2.0,3.0,73,0.00,,,0.01,weatherlink.com 1.10,2013-03-07 00:35:00,
2013-03-06 18:50:00,25.6,18.0,29.61,ENE,57,2.0,5.0,74,0.00,,,0.01,weatherlink.com 1.10,2013-03-07 00:50:00,
2013-03-06 19:05:00,25.2,18.0,29.61,ENE,57,3.0,4.0,75,0.00,,,0.01,weatherlink.com 1.10,2013-03-07 01:05:00,
2013-03-06 19:20:00,24.6,18.0,29.61,ENE,62,1.0,4.0,77,0.00,,,0.01,weatherlink.com 1.10,2013-03-07 01:20:00,
2013-03-06 19:35:00,24.1,18.0,29.61,East,80,1.0,2.0,77,0.00,,,0.01,weatherlink.com 1.10,2013-03-07 01:35:00,
2013-03-06 19:51:00,23.7,18.0,29.61,ENE,63,2.0,3.0,78,0.00,,,0.01,weatherlink.com 1.10,2013-03-07 01:51:00,
2013-03-06 20:05:00,22.9,17.0,29.61,ENE,67,0.0,2.0,78,0.00,,,0.01,weatherlink.com 1.10,2013-03-07 02:05:00,
2013-03-06 20:20:00,22.6,17.0,29.61,NE,56,1.0,3.0,80,0.00,,,0.01,weatherlink.com 1.10,2013-03-07 02:20:00,
2013-03-06 20:35:00,21.6,16.0,29.61,ENE,65,0.0,1.0,80,0.00,,,0.01,weatherlink.com 1.10,2013-03-07 02:35:00,
2013-03-06 20:50:00,20.9,17.0,29.61,ENE,65,0.0,0.0,83,0.00,,,0.01,weatherlink.com 1.10,2013-03-07 02:50:00,
2013-03-06 21:05:00,19.8,16.0,29.61,ENE,65,0.0,0.0,84,0.00,,,0.01,weatherlink.com 1.10,2013-03-07 03:05:00,
2013-03-06 21:20:00,18.6,15.0,29.61,ENE,65,0.0,0.0,85,0.00,,,0.01,weatherlink.com 1.10,2013-03-07 03:20:00,
2013-03-06 21:35:00,17.8,15.0,29.61,ENE,65,0.0,0.0,87,0.00,,,0.01,weatherlink.com 1.10,2013-03-07 03:35:00,
2013-03-06 21:50:00,16.9,14.0,29.61,ENE,65,0.0,0.0,88,0.00,,,0.01,weatherlink.com 1.10,2013-03-07 03:50:00,
2013-03-06 22:05:00,16.3,14.0,29.62,ENE,65,0.0,0.0,89,0.00,,,0.01,weatherlink.com 1.10,2013-03-07 04:05:00,
2013-03-06 22:20:00,15.9,14.0,29.62,ENE,65,0.0,0.0,90,0.00,,,0.01,weatherlink.com 1.10,2013-03-07 04:20:00,
2013-03-06 22:35:00,15.0,13.0,29.62,ENE,65,0.0,0.0,91,0.00,,,0.01,weatherlink.com 1.10,2013-03-07 04:35:00,
2013-03-06 22:50:00,14.7,13.0,29.62,ENE,65,0.0,0.0,91,0.00,,,0.01,weatherlink.com 1.10,2013-03-07 04:50:00,
2013-03-06 23:05:00,14.1,12.0,29.63,ENE,65,0.0,0.0,91,0.00,,,0.01,weatherlink.com 1.10,2013-03-07 05:05:00,
2013-03-06 23:20:00,13.7,12.0,29.63,ENE,65,0.0,1.0,91,0.00,,,0.01,weatherlink.com 1.10,2013-03-07 05:20:00,
2013-03-06 23:35:00,13.1,11.0,29.63,ENE,65,0.0,0.0,91,0.00,,,0.01,weatherlink.com 1.10,2013-03-07 05:35:00,
2013-03-06 23:50:00,12.4,10.0,29.63,ENE,65,0.0,0.0,91,0.00,,,0.01,weatherlink.com 1.10,2013-03-07 05:50:00,